createdAt,value
2022-08-19T00:00:31.076Z,10.20
2022-08-19T00:05:32.871Z,11.00
2022-08-19T00:10:35.130Z,10.88
2022-08-19T00:15:37.017Z,11.10
2022-08-19T00:20:41.414Z,9.93
2022-08-19T00:25:43.094Z,10.98
2022-08-19T00:30:52.927Z,9.45
2022-08-19T00:35:56.422Z,8.88
2022-08-19T00:40:58.584Z,9.52
2022-08-19T00:46:00.382Z,9.38
2022-08-19T00:51:02.603Z,9.13
2022-08-19T00:56:07.318Z,9.05
2022-08-19T01:01:08.999Z,9.30
2022-08-19T01:06:14.075Z,9.40
2022-08-19T01:11:22.231Z,9.60
2022-08-19T01:16:27.518Z,10.02
2022-08-19T01:21:38.753Z,9.25
2022-08-19T01:26:44.142Z,10.27
2022-08-19T01:31:45.939Z,9.65
2022-08-19T01:36:50.192Z,9.73
2022-08-19T01:41:55.369Z,10.52
2022-08-19T01:46:57.416Z,10.43
2022-08-19T01:52:00.912Z,11.95
2022-08-19T01:57:08.086Z,10.45
2022-08-19T02:02:10.030Z,10.98
2022-08-19T02:07:11.660Z,11.40
2022-08-19T02:12:13.418Z,10.55
2022-08-19T02:17:15.307Z,11.00
2022-08-19T02:22:16.945Z,9.93
2022-08-19T02:27:18.876Z,10.13
2022-08-19T02:32:21.082Z,9.60
2022-08-19T02:37:40.952Z,9.50
2022-08-19T02:42:43.776Z,9.80
2022-08-19T02:47:45.476Z,10.40
2022-08-19T02:52:47.163Z,9.73
2022-08-19T02:57:49.616Z,9.25
2022-08-19T03:02:51.321Z,9.10
2022-08-19T03:07:52.869Z,9.38
2022-08-19T03:12:54.665Z,10.43
2022-08-19T03:17:57.191Z,10.50
2022-08-19T03:22:59.095Z,9.68
2022-08-19T03:28:00.644Z,9.40
2022-08-19T03:33:02.864Z,9.35
2022-08-19T03:38:07.835Z,10.30
2022-08-19T03:43:09.641Z,10.23
2022-08-19T03:48:11.351Z,10.40
2022-08-19T03:53:13.025Z,10.75
2022-08-19T03:58:14.714Z,10.02
2022-08-19T04:03:16.614Z,9.60
2022-08-19T04:08:21.126Z,10.13
2022-08-19T04:13:23.295Z,10.13
2022-08-19T04:18:25.075Z,8.82
2022-08-19T04:23:29.257Z,9.38
2022-08-19T04:28:31.322Z,10.52
2022-08-19T04:33:33.290Z,9.95
2022-08-19T04:38:35.185Z,10.50
2022-08-19T04:43:39.454Z,10.60
2022-08-19T04:48:44.920Z,9.65
2022-08-19T04:53:52.250Z,10.88
2022-08-19T04:58:56.273Z,11.05
2022-08-19T05:03:59.691Z,10.45
2022-08-19T05:09:04.879Z,10.82
2022-08-19T05:14:08.633Z,9.88
2022-08-19T05:19:28.899Z,10.15
2022-08-19T05:24:51.199Z,9.95
2022-08-19T05:29:58.282Z,10.43
2022-08-19T05:35:00.083Z,10.15
2022-08-19T05:40:02.486Z,9.80
2022-08-19T05:45:05.507Z,10.05
2022-08-19T05:50:07.788Z,10.10
2022-08-19T05:55:09.600Z,11.20
2022-08-19T06:00:13.431Z,10.68
2022-08-19T06:05:16.737Z,10.32
2022-08-19T06:10:18.729Z,10.13
2022-08-19T06:15:20.814Z,10.75
2022-08-19T06:20:39.923Z,9.13
2022-08-19T06:25:44.413Z,10.18
2022-08-19T06:30:46.647Z,9.60
2022-08-19T06:35:49.587Z,10.25
2022-08-19T06:41:00.532Z,9.00
2022-08-19T06:46:02.934Z,8.27
2022-08-19T06:51:08.716Z,7.55
2022-08-19T06:56:10.611Z,8.05
2022-08-19T07:01:12.222Z,8.18
2022-08-19T07:06:43.263Z,8.68
2022-08-19T07:11:52.760Z,8.93
2022-08-19T07:16:57.204Z,9.02
2022-08-19T07:22:02.616Z,8.82
2022-08-19T07:27:15.078Z,8.60
2022-08-19T07:32:17.299Z,8.95
2022-08-19T07:37:19.691Z,9.48
2022-08-19T07:42:22.493Z,8.45
2022-08-19T07:47:48.734Z,8.18
2022-08-19T07:52:48.980Z,7.50
2022-08-19T07:57:53.507Z,8.07
2022-08-19T08:02:56.066Z,7.88
2022-08-19T08:08:17.223Z,7.32
2022-08-19T08:13:19.408Z,8.43
2022-08-19T08:18:21.656Z,7.55
2022-08-19T08:23:25.911Z,8.25
2022-08-19T08:28:31.313Z,8.30
2022-08-19T08:33:35.239Z,8.88
2022-08-19T08:38:40.264Z,8.07
2022-08-19T08:43:48.614Z,8.95
2022-08-19T08:48:55.716Z,9.10
2022-08-19T08:53:58.725Z,9.38
2022-08-19T08:59:09.312Z,8.75
2022-08-19T09:04:13.869Z,9.20
2022-08-19T09:09:22.253Z,8.73
2022-08-19T09:14:50.277Z,8.82
2022-08-19T09:19:57.582Z,7.68
2022-08-19T09:25:10.149Z,7.63
2022-08-19T09:30:24.881Z,7.28
2022-08-19T09:35:29.799Z,9.07
2022-08-19T09:40:36.579Z,8.27
2022-08-19T09:45:41.156Z,7.28
2022-08-19T09:50:51.904Z,8.10
2022-08-19T09:55:59.311Z,6.70
2022-08-19T10:01:03.111Z,7.40
2022-08-19T10:06:14.978Z,8.00
2022-08-19T10:11:28.005Z,8.88
2022-08-19T10:16:39.703Z,8.80
2022-08-19T10:21:42.765Z,7.63
2022-08-19T10:26:48.548Z,7.82
2022-08-19T10:32:01.342Z,7.45
2022-08-19T10:37:10.755Z,7.20
2022-08-19T10:47:17.815Z,7.15
2022-08-19T10:52:38.896Z,8.15
2022-08-19T10:58:02.207Z,7.68
2022-08-19T11:03:04.578Z,7.72
2022-08-19T11:08:23.131Z,8.50
2022-08-19T11:13:26.322Z,8.82
2022-08-19T11:18:29.210Z,9.02
2022-08-19T11:23:32.228Z,8.13
2022-08-19T11:28:37.696Z,8.32
2022-08-19T11:33:47.205Z,7.30
2022-08-19T11:38:52.857Z,8.05
2022-08-19T11:43:56.739Z,7.10
2022-08-19T11:49:01.549Z,7.93
2022-08-19T11:54:06.341Z,7.30
2022-08-19T11:59:14.052Z,6.95
2022-08-19T12:09:20.524Z,5.63
2022-08-19T12:14:22.481Z,6.03
2022-08-19T12:19:26.970Z,6.13
2022-08-19T12:24:28.781Z,6.30
2022-08-19T12:29:30.882Z,6.57
2022-08-19T12:34:33.467Z,6.82
2022-08-19T12:39:41.594Z,6.85
2022-08-19T12:44:44.801Z,7.45
2022-08-19T12:49:53.365Z,7.40
2022-08-19T12:54:58.315Z,6.97
2022-08-19T13:00:16.414Z,8.35
2022-08-19T13:10:28.714Z,8.18
2022-08-19T13:15:32.309Z,8.40
2022-08-19T13:20:33.957Z,7.65
2022-08-19T13:25:36.414Z,8.60
2022-08-19T13:30:56.635Z,9.23
2022-08-19T13:36:01.742Z,9.48
2022-08-19T13:41:13.289Z,9.45
2022-08-19T13:46:17.099Z,8.77
2022-08-19T13:51:20.729Z,9.23
2022-08-19T13:56:26.273Z,9.38
2022-08-19T14:01:28.424Z,9.68
2022-08-19T14:06:31.350Z,8.65
2022-08-19T14:11:34.047Z,9.30
2022-08-19T14:16:36.236Z,9.27
2022-08-19T14:21:41.634Z,9.65
2022-08-19T14:26:44.228Z,9.00
2022-08-19T14:31:46.918Z,8.48
2022-08-19T14:36:49.394Z,7.55
2022-08-19T14:41:51.802Z,7.18
2022-08-19T14:46:54.297Z,7.00
2022-08-19T14:51:56.273Z,7.65
2022-08-19T14:56:57.955Z,6.97
2022-08-19T15:02:00.697Z,7.57
2022-08-19T15:07:22.727Z,6.82
2022-08-19T15:12:32.538Z,6.70
2022-08-19T15:17:44.986Z,7.45
2022-08-19T15:22:48.697Z,7.00
2022-08-19T15:27:51.189Z,7.68
2022-08-19T15:32:55.788Z,7.90
2022-08-19T15:37:57.878Z,7.97
2022-08-19T15:42:59.496Z,8.95
2022-08-19T15:48:03.034Z,8.07
2022-08-19T15:53:08.454Z,9.23
2022-08-19T15:58:32.059Z,9.05
2022-08-19T16:03:52.207Z,8.60
2022-08-19T16:09:05.273Z,8.80
2022-08-19T16:14:09.576Z,7.65
2022-08-19T16:19:12.216Z,7.60
2022-08-19T16:24:16.661Z,7.97
2022-08-19T16:29:33.272Z,8.10
2022-08-19T16:34:38.061Z,8.68
2022-08-19T16:39:40.960Z,8.13
2022-08-19T16:44:48.010Z,7.78
2022-08-19T16:49:54.473Z,8.27
2022-08-19T16:55:00.181Z,8.02
2022-08-19T17:00:09.896Z,7.55
2022-08-19T17:05:12.576Z,8.05
2022-08-19T17:10:15.292Z,6.60
2022-08-19T17:15:17.048Z,6.32
2022-08-19T17:20:19.561Z,5.95
2022-08-19T17:25:21.217Z,5.57
2022-08-19T17:30:24.582Z,5.03
2022-08-19T17:35:27.321Z,5.50
2022-08-19T17:40:29.240Z,4.82
2022-08-19T17:45:31.909Z,4.78
2022-08-19T17:50:35.278Z,5.63
2022-08-19T17:55:36.961Z,5.03
2022-08-19T18:00:38.574Z,5.55
2022-08-19T18:05:57.276Z,5.82
2022-08-19T18:10:59.998Z,6.53
2022-08-19T18:16:03.565Z,5.82
2022-08-19T18:21:05.852Z,5.97
2022-08-19T18:26:07.932Z,6.15
2022-08-19T18:31:09.679Z,6.28
2022-08-19T18:36:11.910Z,6.60
2022-08-19T18:41:32.622Z,7.35
2022-08-19T18:46:53.664Z,6.65
2022-08-19T18:52:03.581Z,7.22
2022-08-19T18:57:05.998Z,7.03
2022-08-19T19:02:08.475Z,6.40
2022-08-19T19:07:10.238Z,7.00
2022-08-19T19:12:14.301Z,7.00
2022-08-19T19:17:16.963Z,7.55
2022-08-19T19:22:21.513Z,7.20
2022-08-19T19:27:24.693Z,7.57
2022-08-19T19:32:32.397Z,7.15
2022-08-19T19:37:35.545Z,6.75
2022-08-19T19:42:37.789Z,6.38
2022-08-19T19:47:39.939Z,6.10
2022-08-19T19:52:42.886Z,5.13
2022-08-19T19:57:48.931Z,5.50
2022-08-19T20:02:51.639Z,5.47
2022-08-19T20:08:13.678Z,5.07
2022-08-19T20:13:15.833Z,5.20
2022-08-19T20:18:18.354Z,5.45
2022-08-19T20:23:22.431Z,6.80
2022-08-19T20:28:24.488Z,6.07
2022-08-19T20:33:28.595Z,6.15
2022-08-19T20:38:35.374Z,5.40
2022-08-19T20:43:39.192Z,5.35
2022-08-19T20:48:43.094Z,5.45
2022-08-19T20:53:45.115Z,5.90
2022-08-19T20:58:49.954Z,6.40
2022-08-19T21:03:56.245Z,6.00
2022-08-19T21:08:57.893Z,5.47
2022-08-19T21:14:01.138Z,6.30
2022-08-19T21:19:04.889Z,5.53
2022-08-19T21:24:06.865Z,5.55
2022-08-19T21:29:09.218Z,5.28
2022-08-19T21:34:12.966Z,5.13
2022-08-19T21:39:14.626Z,5.60
2022-08-19T21:44:17.047Z,4.80
2022-08-19T21:49:20.026Z,4.78
2022-08-19T21:54:22.552Z,4.72
2022-08-19T21:59:25.257Z,4.85
2022-08-19T22:04:28.595Z,4.13
2022-08-19T22:09:30.930Z,4.13
2022-08-19T22:14:33.919Z,3.85
2022-08-19T22:19:35.883Z,4.10
2022-08-19T22:24:37.595Z,3.85
2022-08-19T22:29:39.552Z,3.67
2022-08-19T22:34:42.033Z,4.03
2022-08-19T22:39:44.566Z,4.18
2022-08-19T22:44:47.020Z,3.10
2022-08-19T22:49:48.867Z,3.63
2022-08-19T22:54:52.897Z,3.22
2022-08-19T23:00:01.275Z,3.00
2022-08-19T23:05:05.514Z,3.20
2022-08-19T23:10:10.368Z,3.30
2022-08-19T23:15:26.009Z,3.33
2022-08-19T23:20:34.241Z,2.92
2022-08-19T23:30:43.835Z,3.08
2022-08-19T23:35:45.931Z,2.60
2022-08-19T23:40:53.468Z,2.50
2022-08-19T23:46:00.945Z,2.72
2022-08-19T23:51:09.422Z,2.88
2022-08-19T23:56:12.897Z,2.70
